Time;durP1;ratioP1;P1;durP2;ratioP2;P2;SDS_P1;SDS_P2;PMS_P1;PMS_P2;Temp;Humidity;BMP_temperature;BMP_pressure;BME280_temperature;BME280_humidity;BME280_pressure;Samples;Min_cycle;Max_cycle;Signal;HPM_P1;HPM_P2
2023/01/15 00:00:51;;;;;;;;;;;7.60;99.90;;;;;;5126355;28;19919;-71
2023/01/15 00:03:18;;;;;;;;;;;7.60;99.90;;;;;;5126115;28;19979;-71
2023/01/15 00:05:45;;;;;;;;;;;7.60;99.90;;;;;;5126085;28;19983;-70
2023/01/15 00:08:12;;;;;;;;;;;7.60;99.90;;;;;;5125827;28;19995;-71
2023/01/15 00:10:38;;;;;;;;;;;7.60;99.90;;;;;;5126203;28;20219;-73
2023/01/15 00:13:05;;;;;;;;;;;7.60;99.90;;;;;;5126134;28;19950;-70
2023/01/15 00:15:32;;;;;;;;;;;7.50;99.90;;;;;;5126497;28;19958;-71
2023/01/15 00:17:58;;;;;;;;;;;7.60;99.90;;;;;;5125664;28;19970;-71
2023/01/15 00:20:26;;;;;;;;;;;7.50;99.90;;;;;;5126058;28;19986;-71
2023/01/15 00:22:53;;;;;;;;;;;7.50;99.90;;;;;;5126033;28;19986;-70
2023/01/15 00:28:03;;;;;;;;;;;7.60;99.90;;;;;;5125402;28;19922;-71
2023/01/15 00:30:32;;;;;;;;;;;7.60;99.90;;;;;;5135673;27;19958;-70
2023/01/15 00:32:59;;;;;;;;;;;7.60;99.90;;;;;;5146293;27;19982;-71
2023/01/15 00:35:27;;;;;;;;;;;7.60;99.90;;;;;;5146116;27;19954;-71
2023/01/15 00:37:53;;;;;;;;;;;7.60;99.90;;;;;;5145701;27;19962;-72
2023/01/15 00:40:20;;;;;;;;;;;7.60;99.90;;;;;;5146423;27;20110;-72
2023/01/15 00:42:47;;;;;;;;;;;7.60;99.90;;;;;;5146427;27;19920;-72
2023/01/15 00:45:14;;;;;;;;;;;7.60;99.90;;;;;;5146293;27;20201;-71
2023/01/15 00:47:42;;;;;;;;;;;7.60;99.90;;;;;;5145435;27;19926;-72
2023/01/15 00:50:10;;;;;;;;;;;7.60;99.90;;;;;;5146291;27;19987;-71
2023/01/15 00:52:38;;;;;;;;;;;7.70;99.90;;;;;;5145787;27;20249;-72
2023/01/15 00:55:05;;;;;;;;;;;7.70;99.90;;;;;;5146125;27;19982;-72
2023/01/15 00:57:31;;;;;;;;;;;7.80;99.90;;;;;;5145458;27;20139;-72
2023/01/15 00:59:58;;;;;;;;;;;7.80;99.90;;;;;;5146092;27;19920;-71
2023/01/15 01:02:25;;;;;;;;;;;7.80;99.90;;;;;;5146017;27;19983;-71
2023/01/15 01:04:51;;;;;;;;;;;7.90;99.90;;;;;;5145579;27;19923;-72
2023/01/15 01:07:18;;;;;;;;;;;7.90;99.90;;;;;;5145246;27;19919;-70
2023/01/15 01:09:46;;;;;;;;;;;7.90;99.90;;;;;;5145602;27;19991;-71
2023/01/15 01:12:13;;;;;;;;;;;8.00;99.90;;;;;;5145600;27;19986;-72
2023/01/15 01:14:39;;;;;;;;;;;8.00;99.90;;;;;;5145667;27;19951;-71
2023/01/15 01:17:06;;;;;;;;;;;8.00;99.90;;;;;;5144956;27;19951;-72
2023/01/15 01:19:32;;;;;;;;;;;8.10;99.90;;;;;;5145338;27;19943;-72
2023/01/15 01:21:59;;;;;;;;;;;8.10;99.90;;;;;;5145325;27;20274;-72
2023/01/15 01:24:26;;;;;;;;;;;8.10;99.90;;;;;;5145423;27;19998;-72
2023/01/15 01:26:54;;;;;;;;;;;8.20;99.90;;;;;;5144379;27;19927;-72
2023/01/15 01:29:23;;;;;;;;;;;8.20;99.90;;;;;;5142444;27;19927;-72
2023/01/15 01:31:50;;;;;;;;;;;8.20;99.90;;;;;;5145491;27;19931;-72
2023/01/15 01:34:16;;;;;;;;;;;8.20;99.90;;;;;;5144863;27;19991;-73
2023/01/15 01:36:44;;;;;;;;;;;8.20;99.90;;;;;;5144565;27;19969;-71
2023/01/15 01:39:13;;;;;;;;;;;8.20;99.90;;;;;;5145325;27;20166;-72
2023/01/15 01:41:39;;;;;;;;;;;8.20;99.90;;;;;;5145055;27;19951;-71
2023/01/15 01:44:08;;;;;;;;;;;8.30;99.90;;;;;;5145049;27;19926;-72
2023/01/15 01:46:36;;;;;;;;;;;8.30;99.90;;;;;;5144281;27;19968;-72
2023/01/15 01:49:06;;;;;;;;;;;8.30;99.90;;;;;;5145099;27;19986;-72
2023/01/15 01:51:35;;;;;;;;;;;8.30;99.90;;;;;;5144812;27;19919;-72
2023/01/15 01:54:02;;;;;;;;;;;8.30;99.90;;;;;;5144876;27;19994;-72
2023/01/15 01:56:29;;;;;;;;;;;8.30;99.90;;;;;;5144400;27;19990;-71
2023/01/15 01:58:56;;;;;;;;;;;8.30;99.90;;;;;;5144981;27;19987;-72
2023/01/15 02:01:25;;;;;;;;;;;8.30;99.90;;;;;;5144934;27;19919;-72
2023/01/15 02:03:52;;;;;;;;;;;8.40;99.90;;;;;;5144591;27;20258;-72
2023/01/15 02:06:19;;;;;;;;;;;8.30;99.90;;;;;;5144248;28;19919;-72
2023/01/15 02:08:46;;;;;;;;;;;8.40;99.90;;;;;;5145050;28;19951;-71
2023/01/15 02:11:15;;;;;;;;;;;8.40;99.90;;;;;;5145050;28;19947;-70
2023/01/15 02:13:49;;;;;;;;;;;8.50;99.90;;;;;;5144608;28;19982;-72
2023/01/15 02:16:17;;;;;;;;;;;8.50;99.90;;;;;;5144200;28;19927;-72
2023/01/15 02:18:50;;;;;;;;;;;8.50;99.90;;;;;;5144777;28;19970;-71
2023/01/15 02:21:23;;;;;;;;;;;8.50;99.90;;;;;;5144574;28;19919;-71
2023/01/15 02:24:06;;;;;;;;;;;8.50;99.90;;;;;;5144745;28;19927;-71
2023/01/15 02:26:59;;;;;;;;;;;8.50;99.90;;;;;;5144077;28;19996;-70
2023/01/15 02:29:39;;;;;;;;;;;8.60;99.90;;;;;;5142115;28;19982;-71
2023/01/15 02:32:08;;;;;;;;;;;8.60;99.90;;;;;;5144646;28;19994;-71
2023/01/15 02:34:38;;;;;;;;;;;8.60;99.90;;;;;;5144491;28;19991;-71
2023/01/15 02:37:06;;;;;;;;;;;8.60;99.90;;;;;;5144101;28;20095;-71
2023/01/15 02:39:34;;;;;;;;;;;8.60;99.90;;;;;;5144652;28;19987;-71
2023/01/15 02:42:02;;;;;;;;;;;8.60;99.90;;;;;;5144565;28;19951;-71
2023/01/15 02:44:30;;;;;;;;;;;8.70;99.90;;;;;;5144615;28;19919;-71
2023/01/15 02:46:59;;;;;;;;;;;8.70;99.90;;;;;;5143919;28;19983;-71
2023/01/15 02:49:26;;;;;;;;;;;8.70;99.90;;;;;;5144624;28;19919;-71
2023/01/15 02:51:56;;;;;;;;;;;8.70;99.90;;;;;;5144654;28;20466;-71
2023/01/15 02:54:29;;;;;;;;;;;8.70;99.90;;;;;;5141896;28;19919;-71
2023/01/15 02:56:56;;;;;;;;;;;8.70;99.90;;;;;;5143864;28;19919;-71
2023/01/15 02:59:24;;;;;;;;;;;8.70;99.90;;;;;;5144549;28;19941;-71
2023/01/15 03:01:54;;;;;;;;;;;8.80;99.90;;;;;;5146412;27;19951;-70
2023/01/15 03:04:24;;;;;;;;;;;8.80;99.90;;;;;;5147872;27;19961;-71
2023/01/15 03:06:53;;;;;;;;;;;8.80;99.90;;;;;;5147377;27;19932;-71
2023/01/15 03:09:20;;;;;;;;;;;8.80;99.90;;;;;;5148221;27;19990;-71
2023/01/15 03:11:49;;;;;;;;;;;8.80;99.90;;;;;;5147859;27;19982;-71
2023/01/15 03:14:18;;;;;;;;;;;8.80;99.90;;;;;;5147895;27;19955;-71
2023/01/15 03:16:46;;;;;;;;;;;8.90;99.90;;;;;;5147314;27;20155;-70
2023/01/15 03:19:18;;;;;;;;;;;8.90;99.90;;;;;;5148033;27;19915;-71
2023/01/15 03:21:50;;;;;;;;;;;8.90;99.90;;;;;;5147985;27;19920;-71
2023/01/15 03:24:19;;;;;;;;;;;8.90;99.90;;;;;;5147482;27;20113;-73
2023/01/15 03:26:46;;;;;;;;;;;9.00;99.90;;;;;;5146913;27;20175;-71
2023/01/15 03:29:13;;;;;;;;;;;9.00;99.90;;;;;;5145340;27;19946;-71
2023/01/15 03:31:40;;;;;;;;;;;9.10;99.90;;;;;;5147819;27;19950;-70
2023/01/15 03:34:07;;;;;;;;;;;9.10;99.90;;;;;;5147249;27;20311;-71
2023/01/15 03:36:35;;;;;;;;;;;9.10;99.90;;;;;;5146024;27;19927;-71
2023/01/15 03:39:03;;;;;;;;;;;9.20;99.90;;;;;;5147624;27;19978;-71
2023/01/15 03:41:35;;;;;;;;;;;9.20;99.90;;;;;;5147617;27;19978;-71
2023/01/15 03:44:07;;;;;;;;;;;9.30;99.90;;;;;;5147583;27;19919;-71
2023/01/15 03:46:50;;;;;;;;;;;9.30;99.90;;;;;;5146525;27;20163;-70
2023/01/15 03:49:20;;;;;;;;;;;9.20;99.90;;;;;;5147328;27;19986;-71
2023/01/15 03:51:51;;;;;;;;;;;9.20;99.90;;;;;;5144922;27;19919;-71
2023/01/15 03:54:23;;;;;;;;;;;9.30;99.90;;;;;;5147001;27;20287;-71
2023/01/15 03:56:54;;;;;;;;;;;9.20;99.90;;;;;;5146615;27;19919;-71
2023/01/15 03:59:22;;;;;;;;;;;9.20;99.90;;;;;;5147355;27;19919;-71
2023/01/15 04:01:51;;;;;;;;;;;9.10;99.90;;;;;;5147072;27;19925;-71
2023/01/15 04:04:17;;;;;;;;;;;9.10;99.90;;;;;;5146696;27;20144;-71
2023/01/15 04:06:44;;;;;;;;;;;9.10;99.90;;;;;;5146463;27;19982;-71
2023/01/15 04:09:13;;;;;;;;;;;9.10;99.90;;;;;;5147282;27;20213;-71
2023/01/15 04:11:41;;;;;;;;;;;9.10;99.90;;;;;;5146792;27;19919;-72
2023/01/15 04:14:07;;;;;;;;;;;9.10;99.90;;;;;;5146268;27;19919;-71
2023/01/15 04:16:34;;;;;;;;;;;9.00;99.90;;;;;;5146126;27;19947;-71
2023/01/15 04:19:01;;;;;;;;;;;9.10;99.90;;;;;;5146805;27;19950;-71
2023/01/15 04:21:28;;;;;;;;;;;9.10;99.90;;;;;;5146877;27;19986;-71
2023/01/15 04:23:55;;;;;;;;;;;9.10;99.90;;;;;;5144077;27;19983;-71
2023/01/15 04:26:22;;;;;;;;;;;9.10;99.90;;;;;;5145934;27;19926;-70
2023/01/15 04:28:51;;;;;;;;;;;9.20;99.90;;;;;;5144026;27;19990;-70
2023/01/15 04:31:18;;;;;;;;;;;9.20;99.90;;;;;;5146544;27;19986;-71
2023/01/15 04:33:47;;;;;;;;;;;9.20;99.90;;;;;;5143831;27;19986;-71
2023/01/15 04:36:14;;;;;;;;;;;9.30;99.90;;;;;;5144945;27;19950;-73
2023/01/15 04:38:41;;;;;;;;;;;9.30;99.90;;;;;;5146416;27;19956;-71
2023/01/15 04:44:06;;;;;;;;;;;9.30;99.90;;;;;;5143597;27;19938;-72
2023/01/15 04:46:34;;;;;;;;;;;9.30;99.90;;;;;;5145112;27;19919;-73
2023/01/15 04:49:00;;;;;;;;;;;9.40;99.90;;;;;;5146385;27;19986;-69
2023/01/15 04:51:27;;;;;;;;;;;9.30;99.90;;;;;;5146023;27;19978;-73
2023/01/15 04:53:54;;;;;;;;;;;9.30;99.90;;;;;;5146016;27;19919;-71
2023/01/15 04:56:20;;;;;;;;;;;9.30;99.90;;;;;;5145258;27;19958;-71
2023/01/15 04:58:47;;;;;;;;;;;9.30;99.90;;;;;;5146052;27;19951;-71
2023/01/15 05:01:16;;;;;;;;;;;9.20;99.90;;;;;;5146127;27;19919;-71
2023/01/15 05:03:43;;;;;;;;;;;9.20;99.90;;;;;;5145532;27;19927;-70
2023/01/15 05:06:10;;;;;;;;;;;9.20;99.90;;;;;;5142183;27;19920;-71
2023/01/15 05:08:36;;;;;;;;;;;9.10;99.90;;;;;;5145543;27;20360;-71
2023/01/15 05:11:03;;;;;;;;;;;9.10;99.90;;;;;;5145616;27;19986;-71
2023/01/15 05:13:32;;;;;;;;;;;9.10;99.90;;;;;;5145860;27;19926;-71
2023/01/15 05:16:06;;;;;;;;;;;9.10;99.90;;;;;;5142462;27;19991;-70
2023/01/15 05:18:34;;;;;;;;;;;9.10;99.90;;;;;;5145571;27;19982;-71
2023/01/15 05:21:01;;;;;;;;;;;9.10;99.90;;;;;;5145319;27;19983;-71
2023/01/15 05:23:29;;;;;;;;;;;9.10;99.90;;;;;;5142992;27;19991;-71
2023/01/15 05:25:55;;;;;;;;;;;9.10;99.90;;;;;;5144219;27;19927;-71
2023/01/15 05:28:22;;;;;;;;;;;9.10;99.90;;;;;;5143218;27;19982;-71
2023/01/15 05:30:49;;;;;;;;;;;9.10;99.90;;;;;;5144550;27;19951;-70
2023/01/15 05:33:15;;;;;;;;;;;9.10;99.90;;;;;;5145282;27;19962;-71
2023/01/15 05:35:43;;;;;;;;;;;9.10;99.90;;;;;;5144885;27;19982;-71
2023/01/15 05:38:11;;;;;;;;;;;9.10;99.90;;;;;;5144048;27;19987;-71
2023/01/15 05:40:37;;;;;;;;;;;9.20;99.90;;;;;;5145105;27;19919;-71
2023/01/15 05:43:04;;;;;;;;;;;9.20;99.90;;;;;;5145127;27;19973;-71
2023/01/15 05:45:31;;;;;;;;;;;9.10;99.90;;;;;;5144681;27;19984;-71
2023/01/15 05:47:57;;;;;;;;;;;9.10;99.90;;;;;;5144344;27;19926;-71
2023/01/15 05:50:24;;;;;;;;;;;9.10;99.90;;;;;;5145208;27;19955;-71
2023/01/15 05:52:52;;;;;;;;;;;9.10;99.90;;;;;;5144992;27;19920;-71
2023/01/15 05:55:18;;;;;;;;;;;9.10;99.90;;;;;;5144999;27;20174;-71
2023/01/15 05:57:45;;;;;;;;;;;9.10;99.90;;;;;;5144271;27;19976;-70
2023/01/15 06:00:12;;;;;;;;;;;9.10;99.90;;;;;;5143096;27;20172;-71
2023/01/15 06:02:39;;;;;;;;;;;9.00;99.90;;;;;;5144621;27;19955;-71
2023/01/15 06:05:06;;;;;;;;;;;9.10;99.90;;;;;;5144905;27;19983;-71
2023/01/15 06:07:33;;;;;;;;;;;9.00;99.90;;;;;;5144480;28;20151;-72
2023/01/15 06:10:02;;;;;;;;;;;9.00;99.90;;;;;;5142171;28;19961;-71
2023/01/15 06:12:32;;;;;;;;;;;9.00;99.90;;;;;;5144845;28;19982;-71
2023/01/15 06:14:58;;;;;;;;;;;9.00;99.90;;;;;;5144405;28;19961;-72
2023/01/15 06:17:25;;;;;;;;;;;9.00;99.90;;;;;;5144257;28;19983;-72
2023/01/15 06:19:51;;;;;;;;;;;9.00;99.90;;;;;;5144988;28;19920;-72
2023/01/15 06:22:18;;;;;;;;;;;9.00;99.90;;;;;;5144892;28;20412;-72
2023/01/15 06:24:45;;;;;;;;;;;9.00;99.90;;;;;;5144407;28;19966;-71
2023/01/15 06:27:11;;;;;;;;;;;9.10;99.90;;;;;;5144169;28;19962;-72
2023/01/15 06:29:39;;;;;;;;;;;9.10;99.90;;;;;;5144896;28;19955;-71
2023/01/15 06:32:06;;;;;;;;;;;9.10;99.90;;;;;;5144954;28;19919;-71
2023/01/15 06:34:33;;;;;;;;;;;9.00;99.90;;;;;;5125973;28;19920;-72
2023/01/15 06:36:59;;;;;;;;;;;8.90;99.90;;;;;;5125569;28;20211;-72
2023/01/15 06:39:26;;;;;;;;;;;8.70;99.90;;;;;;5128398;28;19966;-71
2023/01/15 06:47:23;;;;;;;;;;;8.40;99.90;;;;;;5127190;28;20222;-72
2023/01/15 06:49:50;;;;;;;;;;;8.40;99.90;;;;;;5127753;28;19963;-72
2023/01/15 06:52:17;;;;;;;;;;;8.40;99.90;;;;;;5128076;28;19982;-72
2023/01/15 06:54:43;;;;;;;;;;;8.30;99.90;;;;;;5127888;28;19983;-71
2023/01/15 06:57:10;;;;;;;;;;;8.20;99.90;;;;;;5127255;28;19920;-71
2023/01/15 06:59:36;;;;;;;;;;;8.20;99.90;;;;;;5127898;28;19983;-71
2023/01/15 07:02:03;;;;;;;;;;;8.20;99.90;;;;;;5127637;28;19926;-72
2023/01/15 07:04:31;;;;;;;;;;;8.10;99.90;;;;;;5127484;28;20131;-73
2023/01/15 07:06:58;;;;;;;;;;;8.10;99.90;;;;;;5126528;28;19973;-72
2023/01/15 07:09:26;;;;;;;;;;;8.00;99.90;;;;;;5124883;28;19997;-71
2023/01/15 07:11:52;;;;;;;;;;;8.00;99.90;;;;;;5127284;28;19951;-72
2023/01/15 07:14:20;;;;;;;;;;;8.00;99.90;;;;;;5127537;28;19991;-72
2023/01/15 07:16:47;;;;;;;;;;;8.00;99.90;;;;;;5126768;28;20138;-72
2023/01/15 07:19:13;;;;;;;;;;;7.90;99.90;;;;;;5127296;28;19926;-72
2023/01/15 07:21:41;;;;;;;;;;;7.90;99.90;;;;;;5127530;28;19920;-71
2023/01/15 07:24:09;;;;;;;;;;;7.80;99.90;;;;;;5127229;28;19920;-71
2023/01/15 07:26:36;;;;;;;;;;;7.80;99.90;;;;;;5126452;28;19919;-71
2023/01/15 07:29:03;;;;;;;;;;;7.70;99.90;;;;;;5124217;28;19995;-70
2023/01/15 07:31:29;;;;;;;;;;;7.70;99.90;;;;;;5127151;28;19987;-71
2023/01/15 07:33:56;;;;;;;;;;;7.70;99.90;;;;;;5127276;28;19919;-73
2023/01/15 07:36:23;;;;;;;;;;;7.60;99.90;;;;;;5126129;28;19920;-71
2023/01/15 07:38:51;;;;;;;;;;;7.50;99.90;;;;;;5127054;28;19982;-70
2023/01/15 07:49:47;;;;;;;;;;;7.40;99.90;;;;;;5126151;28;19922;-71
2023/01/15 07:52:14;;;;;;;;;;;7.40;99.90;;;;;;5126839;28;20215;-71
2023/01/15 07:54:41;;;;;;;;;;;7.30;99.90;;;;;;5126578;28;19983;-71
2023/01/15 07:57:08;;;;;;;;;;;7.20;99.90;;;;;;5126232;28;19982;-71
2023/01/15 07:59:36;;;;;;;;;;;7.20;99.90;;;;;;5128714;27;19962;-71
2023/01/15 08:02:02;;;;;;;;;;;7.10;99.90;;;;;;5146831;27;19926;-71
2023/01/15 08:04:29;;;;;;;;;;;7.10;99.90;;;;;;5146899;27;19919;-71
2023/01/15 08:06:56;;;;;;;;;;;7.10;99.90;;;;;;5146087;27;19994;-70
2023/01/15 08:09:24;;;;;;;;;;;7.10;99.90;;;;;;5144661;27;20115;-71
2023/01/15 08:17:21;;;;;;;;;;;7.10;99.90;;;;;;5146291;27;19929;-71
2023/01/15 08:19:47;;;;;;;;;;;7.10;99.90;;;;;;5146591;27;19982;-71
2023/01/15 08:22:15;;;;;;;;;;;7.10;99.90;;;;;;5145656;27;19955;-71
2023/01/15 08:24:42;;;;;;;;;;;7.00;99.90;;;;;;5146621;27;20052;-70
2023/01/15 08:27:10;;;;;;;;;;;6.90;99.90;;;;;;5145573;27;19966;-70
2023/01/15 08:29:36;;;;;;;;;;;6.80;99.90;;;;;;5146564;27;19992;-71
2023/01/15 08:32:04;;;;;;;;;;;6.80;99.90;;;;;;5144922;27;19978;-71
2023/01/15 08:34:31;;;;;;;;;;;6.70;99.90;;;;;;5146418;27;19982;-70
2023/01/15 08:36:58;;;;;;;;;;;6.60;99.90;;;;;;5145314;27;19990;-69
2023/01/15 08:39:26;;;;;;;;;;;6.50;99.90;;;;;;5143408;27;20211;-70
2023/01/15 08:41:52;;;;;;;;;;;6.40;99.90;;;;;;5146411;27;19923;-68
2023/01/15 08:44:22;;;;;;;;;;;6.40;99.90;;;;;;5146214;27;19920;-69
2023/01/15 08:46:49;;;;;;;;;;;6.30;99.90;;;;;;5145323;27;19919;-71
2023/01/15 08:49:16;;;;;;;;;;;6.30;99.90;;;;;;5146230;27;19982;-71
2023/01/15 08:51:43;;;;;;;;;;;6.30;99.90;;;;;;5146297;27;19919;-71
2023/01/15 08:54:10;;;;;;;;;;;6.30;99.90;;;;;;5146076;27;19925;-70
2023/01/15 08:56:36;;;;;;;;;;;6.20;99.90;;;;;;5145383;27;19955;-69
2023/01/15 08:59:04;;;;;;;;;;;6.20;99.90;;;;;;5145957;27;20170;-71
2023/01/15 09:01:32;;;;;;;;;;;6.10;99.90;;;;;;5146219;27;19920;-69
2023/01/15 09:03:59;;;;;;;;;;;6.10;99.90;;;;;;5145720;27;20225;-71
2023/01/15 09:06:26;;;;;;;;;;;6.10;99.90;;;;;;5144923;27;19951;-71
2023/01/15 09:08:52;;;;;;;;;;;6.00;99.90;;;;;;5144691;27;19983;-70
2023/01/15 09:11:19;;;;;;;;;;;6.00;99.90;;;;;;5129662;27;19983;-70
2023/01/15 09:13:47;;;;;;;;;;;5.90;99.90;;;;;;5125060;28;19939;-71
2023/01/15 09:16:16;;;;;;;;;;;5.90;99.90;;;;;;5124720;28;19960;-71
2023/01/15 09:18:44;;;;;;;;;;;5.90;99.90;;;;;;5136362;27;19921;-70
2023/01/15 09:21:11;;;;;;;;;;;5.90;99.90;;;;;;5145655;27;19926;-71
2023/01/15 09:23:39;;;;;;;;;;;5.90;99.90;;;;;;5142967;27;20169;-71
2023/01/15 09:26:07;;;;;;;;;;;5.90;99.90;;;;;;5144464;27;19994;-69
2023/01/15 09:28:34;;;;;;;;;;;5.90;99.90;;;;;;5144329;27;20011;-71
2023/01/15 09:31:01;;;;;;;;;;;6.00;99.90;;;;;;5133597;27;19939;-71
2023/01/15 09:33:28;;;;;;;;;;;5.90;99.90;;;;;;5128675;27;19983;-71
2023/01/15 09:35:55;;;;;;;;;;;5.90;99.90;;;;;;5124506;28;19947;-70
2023/01/15 09:38:22;;;;;;;;;;;5.80;99.90;;;;;;5128886;27;19982;-69
2023/01/15 09:40:51;;;;;;;;;;;5.80;99.90;;;;;;5145036;27;20270;-70
2023/01/15 09:43:34;;;;;;;;;;;5.70;99.90;;;;;;5141911;27;20242;-70
2023/01/15 09:46:08;;;;;;;;;;;5.60;99.90;;;;;;5121106;28;20255;-70
2023/01/15 09:48:43;;;;;;;;;;;5.60;99.90;;;;;;5124505;28;20235;-70
2023/01/15 09:51:16;;;;;;;;;;;5.70;99.90;;;;;;5124513;28;19919;-70
2023/01/15 09:53:49;;;;;;;;;;;5.70;99.90;;;;;;5124587;28;19963;-69
2023/01/15 09:56:21;;;;;;;;;;;5.60;99.90;;;;;;5123772;28;19923;-70
2023/01/15 09:58:47;;;;;;;;;;;5.60;99.90;;;;;;5124590;28;19927;-70
2023/01/15 10:01:16;;;;;;;;;;;5.60;99.90;;;;;;5125698;28;19919;-71
2023/01/15 10:03:45;;;;;;;;;;;5.60;99.90;;;;;;5124934;28;19938;-70
2023/01/15 10:06:15;;;;;;;;;;;5.50;99.90;;;;;;5123402;28;19926;-70
2023/01/15 10:08:45;;;;;;;;;;;5.50;99.90;;;;;;5121979;28;19919;-69
2023/01/15 10:11:21;;;;;;;;;;;5.40;99.90;;;;;;5124109;28;20207;-70
2023/01/15 10:13:49;;;;;;;;;;;5.40;99.90;;;;;;5124197;28;20149;-70
2023/01/15 10:16:19;;;;;;;;;;;5.30;99.90;;;;;;5123132;28;19982;-71
2023/01/15 10:18:45;;;;;;;;;;;5.30;99.90;;;;;;5138318;28;19941;-70
2023/01/15 10:21:22;;;;;;;;;;;5.30;99.90;;;;;;5144712;28;19919;-70
2023/01/15 10:23:55;;;;;;;;;;;5.30;99.90;;;;;;5144459;28;19919;-70
2023/01/15 10:26:30;;;;;;;;;;;5.20;99.90;;;;;;5144181;28;19986;-70
2023/01/15 10:28:58;;;;;;;;;;;5.10;99.90;;;;;;5144510;28;19982;-70
2023/01/15 10:31:32;;;;;;;;;;;5.10;99.90;;;;;;5144788;28;19946;-68
2023/01/15 10:34:08;;;;;;;;;;;5.10;99.90;;;;;;5125168;28;20234;-69
2023/01/15 10:36:38;;;;;;;;;;;5.10;99.90;;;;;;5141365;28;20183;-70
2023/01/15 10:39:11;;;;;;;;;;;5.10;99.90;;;;;;5142088;28;19919;-69
2023/01/15 10:41:43;;;;;;;;;;;5.00;99.90;;;;;;5136498;28;19979;-68
2023/01/15 10:44:12;;;;;;;;;;;5.10;99.90;;;;;;5143101;28;19919;-69
2023/01/15 10:46:40;;;;;;;;;;;5.20;99.90;;;;;;5140500;28;19924;-69
2023/01/15 10:49:12;;;;;;;;;;;5.10;99.90;;;;;;5123612;28;19920;-70
2023/01/15 10:51:42;;;;;;;;;;;5.10;99.90;;;;;;5133729;28;19928;-69
2023/01/15 10:54:12;;;;;;;;;;;5.10;99.90;;;;;;5136022;28;19990;-69
2023/01/15 10:56:42;;;;;;;;;;;5.10;99.90;;;;;;5136686;28;19935;-71
2023/01/15 10:59:12;;;;;;;;;;;5.00;99.90;;;;;;5123220;28;20245;-70
2023/01/15 11:01:40;;;;;;;;;;;5.00;99.90;;;;;;5123328;28;19934;-69
2023/01/15 11:04:13;;;;;;;;;;;5.00;99.90;;;;;;5141684;28;19975;-70
2023/01/15 11:06:41;;;;;;;;;;;5.10;99.90;;;;;;5135642;28;19919;-70
2023/01/15 11:09:09;;;;;;;;;;;5.00;99.90;;;;;;5132118;28;20181;-70
2023/01/15 11:19:35;;;;;;;;;;;5.00;99.90;;;;;;5129640;28;19920;-70
2023/01/15 11:20:13;;;;;;;;;;;4.90;99.90;;;;;;5132405;28;19937;-70
2023/01/15 11:22:41;;;;;;;;;;;4.90;99.90;;;;;;5144149;27;19920;-70
2023/01/15 11:25:09;;;;;;;;;;;4.90;99.90;;;;;;5145161;27;20278;-71
2023/01/15 11:27:36;;;;;;;;;;;4.90;99.90;;;;;;5131551;27;20022;-71
2023/01/15 11:30:04;;;;;;;;;;;4.80;99.90;;;;;;5127328;28;19987;-71
2023/01/15 11:32:32;;;;;;;;;;;4.80;99.90;;;;;;5136714;27;19919;-70
2023/01/15 11:35:00;;;;;;;;;;;4.80;99.90;;;;;;5147024;27;19955;-70
2023/01/15 11:37:27;;;;;;;;;;;4.70;99.90;;;;;;5132921;27;19947;-69
2023/01/15 11:39:56;;;;;;;;;;;4.70;99.90;;;;;;5130125;27;19919;-70
2023/01/15 11:50:50;;;;;;;;;;;4.70;99.90;;;;;;5139757;27;19930;-70
2023/01/15 11:53:19;;;;;;;;;;;4.70;99.90;;;;;;5158796;27;19959;-70
2023/01/15 11:55:59;;;;;;;;;;;4.60;99.90;;;;;;5134262;27;20211;-69
2023/01/15 11:58:27;;;;;;;;;;;4.60;99.90;;;;;;5145848;27;19926;-69
2023/01/15 12:00:55;;;;;;;;;;;4.60;99.90;;;;;;5142745;27;19926;-69
2023/01/15 12:03:23;;;;;;;;;;;4.60;99.90;;;;;;5144756;27;19961;-69
2023/01/15 12:05:54;;;;;;;;;;;4.60;99.90;;;;;;5129091;27;20102;-70
2023/01/15 12:08:25;;;;;;;;;;;4.60;99.90;;;;;;5134199;27;19927;-69
2023/01/15 12:11:10;;;;;;;;;;;4.60;99.90;;;;;;5136301;27;19920;-70
2023/01/15 12:13:44;;;;;;;;;;;4.50;99.90;;;;;;5130991;27;19941;-70
2023/01/15 12:16:14;;;;;;;;;;;4.40;99.90;;;;;;5146322;27;19920;-70
2023/01/15 12:18:54;;;;;;;;;;;4.40;99.90;;;;;;5135814;27;20126;-70
2023/01/15 12:21:27;;;;;;;;;;;4.40;99.90;;;;;;5146277;27;19965;-70
2023/01/15 12:24:02;;;;;;;;;;;4.40;99.90;;;;;;5146072;27;19926;-70
2023/01/15 12:26:30;;;;;;;;;;;4.40;99.90;;;;;;5127151;27;20271;-70
2023/01/15 12:29:05;;;;;;;;;;;4.40;99.90;;;;;;5131145;27;19947;-69
2023/01/15 12:31:33;;;;;;;;;;;4.30;99.90;;;;;;5137453;27;19919;-70
2023/01/15 12:34:03;;;;;;;;;;;4.30;99.90;;;;;;5146211;27;20270;-70
2023/01/15 12:36:33;;;;;;;;;;;4.30;99.90;;;;;;5141496;27;19927;-70
2023/01/15 12:39:01;;;;;;;;;;;4.20;99.90;;;;;;5139771;27;19923;-69
2023/01/15 12:44:59;;;;;;;;;;;4.20;99.90;;;;;;5146056;27;19920;-69
2023/01/15 12:47:05;;;;;;;;;;;4.20;99.90;;;;;;5124638;28;19931;-69
2023/01/15 12:49:34;;;;;;;;;;;4.20;99.90;;;;;;5127926;27;20186;-69
2023/01/15 12:52:02;;;;;;;;;;;4.10;99.90;;;;;;5125337;28;19920;-69
2023/01/15 12:54:34;;;;;;;;;;;4.10;99.90;;;;;;5145317;27;19982;-69
2023/01/15 12:57:03;;;;;;;;;;;4.00;99.90;;;;;;5145178;27;19954;-69
2023/01/15 12:59:34;;;;;;;;;;;4.00;99.90;;;;;;5145122;27;20257;-69
2023/01/15 13:02:08;;;;;;;;;;;4.00;99.90;;;;;;5125152;27;19978;-69
2023/01/15 13:04:40;;;;;;;;;;;4.00;99.90;;;;;;5125246;28;19964;-69
2023/01/15 13:07:11;;;;;;;;;;;4.10;99.90;;;;;;5123070;28;20002;-70
2023/01/15 13:09:39;;;;;;;;;;;4.10;99.90;;;;;;5141618;27;20195;-70
2023/01/15 13:12:11;;;;;;;;;;;4.10;99.90;;;;;;5139737;27;20130;-70
2023/01/15 13:14:39;;;;;;;;;;;4.00;99.90;;;;;;5124993;28;19962;-70
2023/01/15 13:17:11;;;;;;;;;;;4.00;99.90;;;;;;5123898;28;20177;-69
2023/01/15 13:19:42;;;;;;;;;;;3.90;99.90;;;;;;5144670;27;19983;-69
2023/01/15 13:22:11;;;;;;;;;;;3.90;99.90;;;;;;5133969;27;19979;-69
2023/01/15 13:24:52;;;;;;;;;;;3.90;99.90;;;;;;5133140;27;20160;-69
2023/01/15 13:27:29;;;;;;;;;;;3.90;99.90;;;;;;5145092;27;20115;-69
2023/01/15 13:30:04;;;;;;;;;;;3.90;99.90;;;;;;5142503;27;19924;-71
2023/01/15 13:32:33;;;;;;;;;;;3.90;99.90;;;;;;5144167;27;19946;-70
2023/01/15 13:35:01;;;;;;;;;;;4.00;99.90;;;;;;5145490;27;19999;-70
2023/01/15 13:37:29;;;;;;;;;;;4.00;99.90;;;;;;5127786;27;19926;-70
2023/01/15 13:39:57;;;;;;;;;;;4.00;99.90;;;;;;5131228;27;19951;-69
2023/01/15 13:42:31;;;;;;;;;;;4.00;99.90;;;;;;5133497;27;20211;-69
2023/01/15 13:45:01;;;;;;;;;;;4.00;99.90;;;;;;5144314;27;19919;-69
2023/01/15 13:47:30;;;;;;;;;;;4.00;99.90;;;;;;5139850;27;19929;-69
2023/01/15 13:49:59;;;;;;;;;;;4.00;99.90;;;;;;5124762;28;19926;-69
2023/01/15 13:52:27;;;;;;;;;;;4.00;99.90;;;;;;5124631;28;19951;-70
2023/01/15 13:54:55;;;;;;;;;;;4.00;99.90;;;;;;5139175;27;19978;-69
2023/01/15 13:57:24;;;;;;;;;;;4.00;99.90;;;;;;5144125;27;19919;-70
2023/01/15 13:59:50;;;;;;;;;;;3.90;99.90;;;;;;5133225;27;19927;-70
2023/01/15 14:02:28;;;;;;;;;;;3.90;99.90;;;;;;5141410;28;19995;-70
2023/01/15 14:04:55;;;;;;;;;;;3.90;99.90;;;;;;5137424;27;19923;-69
2023/01/15 14:07:31;;;;;;;;;;;3.90;99.90;;;;;;5142050;27;19951;-69
2023/01/15 14:10:07;;;;;;;;;;;3.90;99.90;;;;;;5142127;28;19957;-69
2023/01/15 14:12:40;;;;;;;;;;;3.90;99.90;;;;;;5128126;28;20207;-69
2023/01/15 14:15:25;;;;;;;;;;;3.80;99.90;;;;;;5124318;28;19919;-69
2023/01/15 14:18:08;;;;;;;;;;;3.90;99.90;;;;;;5132974;28;19964;-69
2023/01/15 14:20:55;;;;;;;;;;;3.90;99.90;;;;;;5144157;28;19990;-70
2023/01/15 14:23:30;;;;;;;;;;;3.90;99.90;;;;;;5136570;28;19947;-70
2023/01/15 14:26:06;;;;;;;;;;;3.90;99.90;;;;;;5123826;28;19955;-70
2023/01/15 14:28:38;;;;;;;;;;;3.80;99.90;;;;;;5123551;28;20399;-68
2023/01/15 14:31:16;;;;;;;;;;;3.90;99.90;;;;;;5124086;28;20354;-68
2023/01/15 14:33:53;;;;;;;;;;;3.80;99.90;;;;;;5129324;28;19920;-68
2023/01/15 14:36:23;;;;;;;;;;;3.80;99.90;;;;;;5143515;28;20026;-68
2023/01/15 14:38:51;;;;;;;;;;;3.80;99.90;;;;;;5144209;28;19920;-67
2023/01/15 14:41:25;;;;;;;;;;;3.80;99.90;;;;;;5142345;28;20000;-68
2023/01/15 14:43:51;;;;;;;;;;;3.80;99.90;;;;;;5135829;28;20117;-68
2023/01/15 14:46:26;;;;;;;;;;;3.80;99.90;;;;;;5143647;28;19922;-68
2023/01/15 14:48:54;;;;;;;;;;;3.80;99.90;;;;;;5134107;28;19920;-69
2023/01/15 14:51:24;;;;;;;;;;;3.80;99.90;;;;;;5137276;28;19991;-70
2023/01/15 14:53:52;;;;;;;;;;;3.80;99.90;;;;;;5122601;28;19987;-69
2023/01/15 14:56:21;;;;;;;;;;;3.80;99.90;;;;;;5123395;28;19982;-69
2023/01/15 14:58:51;;;;;;;;;;;3.80;99.90;;;;;;5147684;27;19978;-69
2023/01/15 15:01:24;;;;;;;;;;;3.90;99.90;;;;;;5148510;27;19920;-69
2023/01/15 15:03:53;;;;;;;;;;;3.90;99.90;;;;;;5148037;27;20148;-69
2023/01/15 15:06:22;;;;;;;;;;;4.00;99.90;;;;;;5142170;27;19959;-69
2023/01/15 15:08:50;;;;;;;;;;;4.00;99.90;;;;;;5145180;27;20002;-68
2023/01/15 15:14:06;;;;;;;;;;;3.80;99.90;;;;;;5136316;27;19978;-70
2023/01/15 15:16:35;;;;;;;;;;;3.90;99.90;;;;;;5147047;27;19925;-70
2023/01/15 15:19:04;;;;;;;;;;;3.90;99.90;;;;;;5147639;27;19949;-70
2023/01/15 15:21:33;;;;;;;;;;;3.90;99.90;;;;;;5145761;27;20275;-70
2023/01/15 15:24:02;;;;;;;;;;;3.80;99.90;;;;;;5124587;27;20156;-68
2023/01/15 15:26:30;;;;;;;;;;;3.80;99.90;;;;;;5126336;28;19926;-69